sensor_id;sensor_type;location;lat;lon;timestamp;temperature;humidity
1129;DHT22;553;51.038;7.216;2023-11-21T00:01:06;9.30;99.90
1129;DHT22;553;51.038;7.216;2023-11-21T00:03:36;9.30;99.90
1129;DHT22;553;51.038;7.216;2023-11-21T00:06:03;9.20;99.90
1129;DHT22;553;51.038;7.216;2023-11-21T00:08:30;9.30;99.90
1129;DHT22;553;51.038;7.216;2023-11-21T00:10:56;9.20;99.90
1129;DHT22;553;51.038;7.216;2023-11-21T00:13:23;9.30;99.90
1129;DHT22;553;51.038;7.216;2023-11-21T00:15:50;9.30;99.90
1129;DHT22;553;51.038;7.216;2023-11-21T00:18:17;9.40;99.90
1129;DHT22;553;51.038;7.216;2023-11-21T00:20:44;9.40;99.90
1129;DHT22;553;51.038;7.216;2023-11-21T00:23:11;9.40;99.90
1129;DHT22;553;51.038;7.216;2023-11-21T00:25:38;9.40;99.90
1129;DHT22;553;51.038;7.216;2023-11-21T00:28:05;9.40;99.90
1129;DHT22;553;51.038;7.216;2023-11-21T00:30:32;9.40;99.90
1129;DHT22;553;51.038;7.216;2023-11-21T00:32:59;9.40;99.90
1129;DHT22;553;51.038;7.216;2023-11-21T00:35:26;9.30;99.90
1129;DHT22;553;51.038;7.216;2023-11-21T00:37:54;9.40;99.90
1129;DHT22;553;51.038;7.216;2023-11-21T00:40:21;9.40;99.90
1129;DHT22;553;51.038;7.216;2023-11-21T00:42:48;9.40;99.90
1129;DHT22;553;51.038;7.216;2023-11-21T00:45:15;9.40;99.90
1129;DHT22;553;51.038;7.216;2023-11-21T00:47:42;9.30;99.90
1129;DHT22;553;51.038;7.216;2023-11-21T00:50:09;9.30;99.90
1129;DHT22;553;51.038;7.216;2023-11-21T00:52:36;9.30;99.90
1129;DHT22;553;51.038;7.216;2023-11-21T00:55:04;9.20;99.90
1129;DHT22;553;51.038;7.216;2023-11-21T00:57:31;9.20;99.90
1129;DHT22;553;51.038;7.216;2023-11-21T00:59:58;9.30;99.90
1129;DHT22;553;51.038;7.216;2023-11-21T01:02:25;9.20;99.90
1129;DHT22;553;51.038;7.216;2023-11-21T01:04:52;9.20;99.90
1129;DHT22;553;51.038;7.216;2023-11-21T01:07:19;9.20;99.90
1129;DHT22;553;51.038;7.216;2023-11-21T01:09:47;9.20;99.90
1129;DHT22;553;51.038;7.216;2023-11-21T01:12:14;9.10;99.90
1129;DHT22;553;51.038;7.216;2023-11-21T01:14:41;9.10;99.90
1129;DHT22;553;51.038;7.216;2023-11-21T01:17:08;9.10;99.90
1129;DHT22;553;51.038;7.216;2023-11-21T01:19:35;9.10;99.90
1129;DHT22;553;51.038;7.216;2023-11-21T01:22:02;9.00;99.90
1129;DHT22;553;51.038;7.216;2023-11-21T01:24:28;9.00;99.90
1129;DHT22;553;51.038;7.216;2023-11-21T01:26:56;8.90;99.90
1129;DHT22;553;51.038;7.216;2023-11-21T01:29:24;8.90;99.90
1129;DHT22;553;51.038;7.216;2023-11-21T01:31:50;8.90;99.90
1129;DHT22;553;51.038;7.216;2023-11-21T01:34:18;8.90;99.90
1129;DHT22;553;51.038;7.216;2023-11-21T01:36:46;8.90;99.90
1129;DHT22;553;51.038;7.216;2023-11-21T01:39:13;8.80;99.90
1129;DHT22;553;51.038;7.216;2023-11-21T01:41:42;8.80;99.90
1129;DHT22;553;51.038;7.216;2023-11-21T01:44:10;8.80;99.90
1129;DHT22;553;51.038;7.216;2023-11-21T01:46:38;8.70;99.90
1129;DHT22;553;51.038;7.216;2023-11-21T01:49:05;8.70;99.90
1129;DHT22;553;51.038;7.216;2023-11-21T01:51:32;8.60;99.90
1129;DHT22;553;51.038;7.216;2023-11-21T01:54:01;8.50;99.90
1129;DHT22;553;51.038;7.216;2023-11-21T01:56:28;8.50;99.90
1129;DHT22;553;51.038;7.216;2023-11-21T01:58:55;8.40;99.90
1129;DHT22;553;51.038;7.216;2023-11-21T02:01:22;8.40;99.90
1129;DHT22;553;51.038;7.216;2023-11-21T02:03:49;8.40;99.90
1129;DHT22;553;51.038;7.216;2023-11-21T02:06:16;8.30;99.90
1129;DHT22;553;51.038;7.216;2023-11-21T02:08:43;8.30;99.90
1129;DHT22;553;51.038;7.216;2023-11-21T02:11:11;8.30;99.90
1129;DHT22;553;51.038;7.216;2023-11-21T02:13:41;8.20;99.90
1129;DHT22;553;51.038;7.216;2023-11-21T02:16:12;8.10;99.90
1129;DHT22;553;51.038;7.216;2023-11-21T02:18:39;8.10;99.90
1129;DHT22;553;51.038;7.216;2023-11-21T02:21:06;8.10;99.90
1129;DHT22;553;51.038;7.216;2023-11-21T02:23:33;8.10;99.90
1129;DHT22;553;51.038;7.216;2023-11-21T02:26:02;8.10;99.90
1129;DHT22;553;51.038;7.216;2023-11-21T02:28:31;8.10;99.90
1129;DHT22;553;51.038;7.216;2023-11-21T02:30:59;8.10;99.90
1129;DHT22;553;51.038;7.216;2023-11-21T02:33:26;8.10;99.90
1129;DHT22;553;51.038;7.216;2023-11-21T02:35:53;8.10;99.90
1129;DHT22;553;51.038;7.216;2023-11-21T02:38:21;8.10;99.90
1129;DHT22;553;51.038;7.216;2023-11-21T02:40:48;8.10;99.90
1129;DHT22;553;51.038;7.216;2023-11-21T02:43:16;8.20;99.90
1129;DHT22;553;51.038;7.216;2023-11-21T02:45:43;8.20;99.90
1129;DHT22;553;51.038;7.216;2023-11-21T02:48:09;8.20;99.90
1129;DHT22;553;51.038;7.216;2023-11-21T02:50:36;8.30;99.90
1129;DHT22;553;51.038;7.216;2023-11-21T02:53:04;8.30;99.90
1129;DHT22;553;51.038;7.216;2023-11-21T02:55:32;8.40;99.90
1129;DHT22;553;51.038;7.216;2023-11-21T02:58:02;8.40;99.90
1129;DHT22;553;51.038;7.216;2023-11-21T03:00:30;8.40;99.90
1129;DHT22;553;51.038;7.216;2023-11-21T03:02:57;8.50;99.90
1129;DHT22;553;51.038;7.216;2023-11-21T03:05:25;8.50;99.90
1129;DHT22;553;51.038;7.216;2023-11-21T03:07:52;8.40;99.90
1129;DHT22;553;51.038;7.216;2023-11-21T03:10:19;8.50;99.90
1129;DHT22;553;51.038;7.216;2023-11-21T03:12:46;8.50;99.90
1129;DHT22;553;51.038;7.216;2023-11-21T03:15:13;8.50;99.90
1129;DHT22;553;51.038;7.216;2023-11-21T03:17:40;8.60;99.90
1129;DHT22;553;51.038;7.216;2023-11-21T03:20:07;8.60;99.90
1129;DHT22;553;51.038;7.216;2023-11-21T03:22:37;8.70;99.90
1129;DHT22;553;51.038;7.216;2023-11-21T03:25:06;8.80;99.90
1129;DHT22;553;51.038;7.216;2023-11-21T03:27:33;8.80;99.90
1129;DHT22;553;51.038;7.216;2023-11-21T03:30:00;8.80;99.90
1129;DHT22;553;51.038;7.216;2023-11-21T03:32:26;8.70;99.90
1129;DHT22;553;51.038;7.216;2023-11-21T03:34:57;8.70;99.90
1129;DHT22;553;51.038;7.216;2023-11-21T03:37:26;8.70;99.90
1129;DHT22;553;51.038;7.216;2023-11-21T03:39:55;8.70;99.90
1129;DHT22;553;51.038;7.216;2023-11-21T03:42:22;8.70;99.90
1129;DHT22;553;51.038;7.216;2023-11-21T03:44:50;8.70;99.90
1129;DHT22;553;51.038;7.216;2023-11-21T03:47:16;8.70;99.90
1129;DHT22;553;51.038;7.216;2023-11-21T03:49:43;8.70;99.90
1129;DHT22;553;51.038;7.216;2023-11-21T03:52:10;8.80;99.90
1129;DHT22;553;51.038;7.216;2023-11-21T03:54:37;8.70;99.90
1129;DHT22;553;51.038;7.216;2023-11-21T03:57:04;8.70;99.90
1129;DHT22;553;51.038;7.216;2023-11-21T03:59:31;8.70;99.90
1129;DHT22;553;51.038;7.216;2023-11-21T04:01:58;8.80;99.90
1129;DHT22;553;51.038;7.216;2023-11-21T04:04:24;8.80;99.90
1129;DHT22;553;51.038;7.216;2023-11-21T04:06:51;8.80;99.90
1129;DHT22;553;51.038;7.216;2023-11-21T04:09:18;8.80;99.90
1129;DHT22;553;51.038;7.216;2023-11-21T04:11:45;8.80;99.90
1129;DHT22;553;51.038;7.216;2023-11-21T04:14:12;8.80;99.90
1129;DHT22;553;51.038;7.216;2023-11-21T04:16:40;8.80;99.90
1129;DHT22;553;51.038;7.216;2023-11-21T04:19:07;8.90;99.90
1129;DHT22;553;51.038;7.216;2023-11-21T04:21:37;8.80;99.90
1129;DHT22;553;51.038;7.216;2023-11-21T04:24:05;8.80;99.90
1129;DHT22;553;51.038;7.216;2023-11-21T04:26:31;8.80;99.90
1129;DHT22;553;51.038;7.216;2023-11-21T04:28:58;8.80;99.90
1129;DHT22;553;51.038;7.216;2023-11-21T04:31:25;8.80;99.90
1129;DHT22;553;51.038;7.216;2023-11-21T04:33:52;8.80;99.90
1129;DHT22;553;51.038;7.216;2023-11-21T04:36:19;8.90;99.90
1129;DHT22;553;51.038;7.216;2023-11-21T04:38:46;8.80;99.90
1129;DHT22;553;51.038;7.216;2023-11-21T04:41:13;8.80;99.90
1129;DHT22;553;51.038;7.216;2023-11-21T04:43:40;8.80;99.90
1129;DHT22;553;51.038;7.216;2023-11-21T04:46:06;8.90;99.90
1129;DHT22;553;51.038;7.216;2023-11-21T04:48:33;8.90;99.90
1129;DHT22;553;51.038;7.216;2023-11-21T04:51:00;8.90;99.90
1129;DHT22;553;51.038;7.216;2023-11-21T04:53:27;8.90;99.90
1129;DHT22;553;51.038;7.216;2023-11-21T04:55:53;8.90;99.90
1129;DHT22;553;51.038;7.216;2023-11-21T04:58:20;8.90;99.90
1129;DHT22;553;51.038;7.216;2023-11-21T05:00:47;8.90;99.90
1129;DHT22;553;51.038;7.216;2023-11-21T05:03:14;8.80;99.90
1129;DHT22;553;51.038;7.216;2023-11-21T05:05:42;8.90;99.90
1129;DHT22;553;51.038;7.216;2023-11-21T05:08:09;8.90;99.90
1129;DHT22;553;51.038;7.216;2023-11-21T05:10:36;8.80;99.90
1129;DHT22;553;51.038;7.216;2023-11-21T05:13:04;8.90;99.90
1129;DHT22;553;51.038;7.216;2023-11-21T05:15:36;8.90;99.90
1129;DHT22;553;51.038;7.216;2023-11-21T05:18:04;8.90;99.90
1129;DHT22;553;51.038;7.216;2023-11-21T05:20:32;8.90;99.90
1129;DHT22;553;51.038;7.216;2023-11-21T05:22:59;8.90;99.90
1129;DHT22;553;51.038;7.216;2023-11-21T05:25:26;8.80;99.90
1129;DHT22;553;51.038;7.216;2023-11-21T05:27:53;8.90;99.90
1129;DHT22;553;51.038;7.216;2023-11-21T05:30:22;8.80;99.90
1129;DHT22;553;51.038;7.216;2023-11-21T05:32:48;8.80;99.90
1129;DHT22;553;51.038;7.216;2023-11-21T05:35:17;8.80;99.90
1129;DHT22;553;51.038;7.216;2023-11-21T05:37:45;8.80;99.90
1129;DHT22;553;51.038;7.216;2023-11-21T05:40:13;8.80;99.90
1129;DHT22;553;51.038;7.216;2023-11-21T05:42:40;8.80;99.90
1129;DHT22;553;51.038;7.216;2023-11-21T05:45:08;8.80;99.90
1129;DHT22;553;51.038;7.216;2023-11-21T05:47:46;8.80;99.90
1129;DHT22;553;51.038;7.216;2023-11-21T05:50:15;8.70;99.90
1129;DHT22;553;51.038;7.216;2023-11-21T05:52:47;8.60;99.90
1129;DHT22;553;51.038;7.216;2023-11-21T05:55:14;8.60;99.90
1129;DHT22;553;51.038;7.216;2023-11-21T05:57:43;8.60;99.90
1129;DHT22;553;51.038;7.216;2023-11-21T06:00:12;8.60;99.90
1129;DHT22;553;51.038;7.216;2023-11-21T06:02:52;8.60;99.90
1129;DHT22;553;51.038;7.216;2023-11-21T06:05:24;8.70;99.90
1129;DHT22;553;51.038;7.216;2023-11-21T06:07:53;8.70;99.90
1129;DHT22;553;51.038;7.216;2023-11-21T06:10:21;8.70;99.90
1129;DHT22;553;51.038;7.216;2023-11-21T06:12:48;8.70;99.90
1129;DHT22;553;51.038;7.216;2023-11-21T06:15:15;8.70;99.90
1129;DHT22;553;51.038;7.216;2023-11-21T06:17:42;8.60;99.90
1129;DHT22;553;51.038;7.216;2023-11-21T06:20:11;8.60;99.90
1129;DHT22;553;51.038;7.216;2023-11-21T06:22:42;8.60;99.90
1129;DHT22;553;51.038;7.216;2023-11-21T06:25:10;8.60;99.90
1129;DHT22;553;51.038;7.216;2023-11-21T06:27:43;8.60;99.90
1129;DHT22;553;51.038;7.216;2023-11-21T06:30:15;8.60;99.90
1129;DHT22;553;51.038;7.216;2023-11-21T06:32:42;8.60;99.90
1129;DHT22;553;51.038;7.216;2023-11-21T06:35:14;8.50;99.90
1129;DHT22;553;51.038;7.216;2023-11-21T06:37:42;8.50;99.90
1129;DHT22;553;51.038;7.216;2023-11-21T06:40:14;8.50;99.90
1129;DHT22;553;51.038;7.216;2023-11-21T06:42:46;8.50;99.90
1129;DHT22;553;51.038;7.216;2023-11-21T06:45:13;8.50;99.90
1129;DHT22;553;51.038;7.216;2023-11-21T06:47:41;8.50;99.90
1129;DHT22;553;51.038;7.216;2023-11-21T06:50:08;8.60;99.90
1129;DHT22;553;51.038;7.216;2023-11-21T06:52:35;8.60;99.90
1129;DHT22;553;51.038;7.216;2023-11-21T06:55:02;8.60;99.90
1129;DHT22;553;51.038;7.216;2023-11-21T06:57:30;8.60;99.90
1129;DHT22;553;51.038;7.216;2023-11-21T06:59:57;8.60;99.90
1129;DHT22;553;51.038;7.216;2023-11-21T07:02:24;8.60;99.90
1129;DHT22;553;51.038;7.216;2023-11-21T07:04:51;8.60;99.90
1129;DHT22;553;51.038;7.216;2023-11-21T07:07:18;8.70;99.90
1129;DHT22;553;51.038;7.216;2023-11-21T07:09:45;8.60;99.90
1129;DHT22;553;51.038;7.216;2023-11-21T07:12:12;8.70;99.90
1129;DHT22;553;51.038;7.216;2023-11-21T07:14:40;8.60;99.90
1129;DHT22;553;51.038;7.216;2023-11-21T07:17:10;8.60;99.90
1129;DHT22;553;51.038;7.216;2023-11-21T07:19:38;8.60;99.90
1129;DHT22;553;51.038;7.216;2023-11-21T07:22:05;8.60;99.90
1129;DHT22;553;51.038;7.216;2023-11-21T07:24:32;8.60;99.90
1129;DHT22;553;51.038;7.216;2023-11-21T07:26:59;8.50;99.90
1129;DHT22;553;51.038;7.216;2023-11-21T07:29:27;8.50;99.90
1129;DHT22;553;51.038;7.216;2023-11-21T07:31:56;10.90;99.90
1129;DHT22;553;51.038;7.216;2023-11-21T07:34:23;10.50;99.90
1129;DHT22;553;51.038;7.216;2023-11-21T07:36:49;10.10;99.90
1129;DHT22;553;51.038;7.216;2023-11-21T07:39:16;9.90;99.90
1129;DHT22;553;51.038;7.216;2023-11-21T07:41:43;9.70;99.90
1129;DHT22;553;51.038;7.216;2023-11-21T07:44:18;9.60;99.90
1129;DHT22;553;51.038;7.216;2023-11-21T07:46:46;9.40;99.90
1129;DHT22;553;51.038;7.216;2023-11-21T07:49:13;10.10;99.90
1129;DHT22;553;51.038;7.216;2023-11-21T07:51:43;13.30;99.90
1129;DHT22;553;51.038;7.216;2023-11-21T07:54:11;13.00;99.90
1129;DHT22;553;51.038;7.216;2023-11-21T07:56:37;12.40;99.90
1129;DHT22;553;51.038;7.216;2023-11-21T07:59:04;11.80;99.90
1129;DHT22;553;51.038;7.216;2023-11-21T08:01:31;11.30;99.90
1129;DHT22;553;51.038;7.216;2023-11-21T08:03:58;10.90;99.90
1129;DHT22;553;51.038;7.216;2023-11-21T08:06:29;10.40;99.90
1129;DHT22;553;51.038;7.216;2023-11-21T08:08:57;10.10;99.90
1129;DHT22;553;51.038;7.216;2023-11-21T08:11:23;9.80;99.90
1129;DHT22;553;51.038;7.216;2023-11-21T08:13:50;9.70;99.90
1129;DHT22;553;51.038;7.216;2023-11-21T08:16:17;9.60;99.90
1129;DHT22;553;51.038;7.216;2023-11-21T08:18:44;9.60;99.90
1129;DHT22;553;51.038;7.216;2023-11-21T08:21:12;9.60;99.90
1129;DHT22;553;51.038;7.216;2023-11-21T08:23:39;9.60;99.90
1129;DHT22;553;51.038;7.216;2023-11-21T08:26:06;9.60;99.90
1129;DHT22;553;51.038;7.216;2023-11-21T08:28:33;9.70;99.90
1129;DHT22;553;51.038;7.216;2023-11-21T08:31:01;9.60;99.90
1129;DHT22;553;51.038;7.216;2023-11-21T08:33:27;9.60;99.90
1129;DHT22;553;51.038;7.216;2023-11-21T08:35:55;9.70;99.90
1129;DHT22;553;51.038;7.216;2023-11-21T08:38:22;9.70;99.90
1129;DHT22;553;51.038;7.216;2023-11-21T08:40:49;9.70;99.90
1129;DHT22;553;51.038;7.216;2023-11-21T08:43:15;9.70;99.90
1129;DHT22;553;51.038;7.216;2023-11-21T08:45:43;9.70;99.90
1129;DHT22;553;51.038;7.216;2023-11-21T08:48:09;9.70;99.90
1129;DHT22;553;51.038;7.216;2023-11-21T08:50:38;9.60;99.90
1129;DHT22;553;51.038;7.216;2023-11-21T08:53:04;9.60;99.90
1129;DHT22;553;51.038;7.216;2023-11-21T08:55:32;9.60;99.90
1129;DHT22;553;51.038;7.216;2023-11-21T08:58:04;9.70;99.90
1129;DHT22;553;51.038;7.216;2023-11-21T09:00:32;9.70;99.90
1129;DHT22;553;51.038;7.216;2023-11-21T09:03:01;9.70;99.90
1129;DHT22;553;51.038;7.216;2023-11-21T09:05:29;9.70;99.90
1129;DHT22;553;51.038;7.216;2023-11-21T09:07:56;9.70;99.90
1129;DHT22;553;51.038;7.216;2023-11-21T09:10:23;9.70;99.90
1129;DHT22;553;51.038;7.216;2023-11-21T09:12:52;9.70;99.90
1129;DHT22;553;51.038;7.216;2023-11-21T09:15:18;9.70;99.90
1129;DHT22;553;51.038;7.216;2023-11-21T09:17:47;9.60;99.90
1129;DHT22;553;51.038;7.216;2023-11-21T09:20:15;9.70;99.90
1129;DHT22;553;51.038;7.216;2023-11-21T09:22:42;9.70;99.90
1129;DHT22;553;51.038;7.216;2023-11-21T09:25:11;9.70;99.90
1129;DHT22;553;51.038;7.216;2023-11-21T09:27:39;9.70;99.90
1129;DHT22;553;51.038;7.216;2023-11-21T09:30:07;9.90;99.90
1129;DHT22;553;51.038;7.216;2023-11-21T09:32:40;9.90;99.90
1129;DHT22;553;51.038;7.216;2023-11-21T09:35:07;9.90;99.90
1129;DHT22;553;51.038;7.216;2023-11-21T09:37:37;10.00;99.90
1129;DHT22;553;51.038;7.216;2023-11-21T09:40:07;10.90;99.90
1129;DHT22;553;51.038;7.216;2023-11-21T09:42:46;10.70;99.90
1129;DHT22;553;51.038;7.216;2023-11-21T09:47:53;10.50;99.90
1129;DHT22;553;51.038;7.216;2023-11-21T09:50:22;10.40;99.90
1129;DHT22;553;51.038;7.216;2023-11-21T09:55:29;10.20;99.90
1129;DHT22;553;51.038;7.216;2023-11-21T09:57:57;10.20;99.90
1129;DHT22;553;51.038;7.216;2023-11-21T10:00:24;10.20;99.90
1129;DHT22;553;51.038;7.216;2023-11-21T10:02:52;10.10;99.90
1129;DHT22;553;51.038;7.216;2023-11-21T10:05:20;10.10;99.90
1129;DHT22;553;51.038;7.216;2023-11-21T10:07:53;10.10;99.90
1129;DHT22;553;51.038;7.216;2023-11-21T10:10:25;10.10;99.90
1129;DHT22;553;51.038;7.216;2023-11-21T10:12:56;10.10;99.90
1129;DHT22;553;51.038;7.216;2023-11-21T10:15:24;10.20;99.90
1129;DHT22;553;51.038;7.216;2023-11-21T10:17:56;10.10;99.90
1129;DHT22;553;51.038;7.216;2023-11-21T10:20:23;10.20;99.90
1129;DHT22;553;51.038;7.216;2023-11-21T10:22:51;10.20;99.90
1129;DHT22;553;51.038;7.216;2023-11-21T10:25:18;10.20;99.90
1129;DHT22;553;51.038;7.216;2023-11-21T10:27:48;10.20;99.90
1129;DHT22;553;51.038;7.216;2023-11-21T10:30:17;10.20;99.90
1129;DHT22;553;51.038;7.216;2023-11-21T10:32:44;10.30;99.90
1129;DHT22;553;51.038;7.216;2023-11-21T10:35:11;10.30;99.90
1129;DHT22;553;51.038;7.216;2023-11-21T10:37:39;10.30;99.90
1129;DHT22;553;51.038;7.216;2023-11-21T10:40:11;10.30;99.90
1129;DHT22;553;51.038;7.216;2023-11-21T10:42:39;10.40;99.90
1129;DHT22;553;51.038;7.216;2023-11-21T10:45:07;10.30;99.90
1129;DHT22;553;51.038;7.216;2023-11-21T10:47:42;10.40;99.90
1129;DHT22;553;51.038;7.216;2023-11-21T10:50:10;10.30;99.90
1129;DHT22;553;51.038;7.216;2023-11-21T10:52:41;10.30;99.90
1129;DHT22;553;51.038;7.216;2023-11-21T10:55:17;10.50;99.90
1129;DHT22;553;51.038;7.216;2023-11-21T10:57:48;10.50;99.90
1129;DHT22;553;51.038;7.216;2023-11-21T11:00:16;10.50;99.90
1129;DHT22;553;51.038;7.216;2023-11-21T11:02:43;10.50;99.90
1129;DHT22;553;51.038;7.216;2023-11-21T11:05:10;10.50;99.90
1129;DHT22;553;51.038;7.216;2023-11-21T11:07:40;10.50;99.90
1129;DHT22;553;51.038;7.216;2023-11-21T11:10:09;10.50;99.90
1129;DHT22;553;51.038;7.216;2023-11-21T11:12:41;10.40;99.90
1129;DHT22;553;51.038;7.216;2023-11-21T11:15:08;10.50;99.90
1129;DHT22;553;51.038;7.216;2023-11-21T11:17:38;10.40;99.90
1129;DHT22;553;51.038;7.216;2023-11-21T11:20:06;10.40;99.90
1129;DHT22;553;51.038;7.216;2023-11-21T11:29:13;10.40;99.90
1129;DHT22;553;51.038;7.216;2023-11-21T11:32:12;10.50;99.90
1129;DHT22;553;51.038;7.216;2023-11-21T11:34:48;10.50;99.90
1129;DHT22;553;51.038;7.216;2023-11-21T11:37:18;10.60;99.90
1129;DHT22;553;51.038;7.216;2023-11-21T11:39:45;10.60;99.90
1129;DHT22;553;51.038;7.216;2023-11-21T11:42:14;10.60;99.90
1129;DHT22;553;51.038;7.216;2023-11-21T11:47:27;10.80;99.90
1129;DHT22;553;51.038;7.216;2023-11-21T11:50:10;10.80;99.90
1129;DHT22;553;51.038;7.216;2023-11-21T11:52:48;10.70;99.90
1129;DHT22;553;51.038;7.216;2023-11-21T11:55:16;10.70;99.90
1129;DHT22;553;51.038;7.216;2023-11-21T11:57:51;10.90;99.90
1129;DHT22;553;51.038;7.216;2023-11-21T12:00:43;11.00;99.90
1129;DHT22;553;51.038;7.216;2023-11-21T12:03:13;11.00;99.90
1129;DHT22;553;51.038;7.216;2023-11-21T12:05:40;11.00;99.90
1129;DHT22;553;51.038;7.216;2023-11-21T12:08:09;11.10;99.90
1129;DHT22;553;51.038;7.216;2023-11-21T12:10:37;11.00;99.90
1129;DHT22;553;51.038;7.216;2023-11-21T12:13:10;11.00;99.90
1129;DHT22;553;51.038;7.216;2023-11-21T12:15:39;11.00;99.90
1129;DHT22;553;51.038;7.216;2023-11-21T12:18:09;11.00;99.90
1129;DHT22;553;51.038;7.216;2023-11-21T12:20:36;11.10;99.90
1129;DHT22;553;51.038;7.216;2023-11-21T12:23:06;11.00;99.90
1129;DHT22;553;51.038;7.216;2023-11-21T12:25:33;11.00;99.90
1129;DHT22;553;51.038;7.216;2023-11-21T12:28:02;11.10;99.90
1129;DHT22;553;51.038;7.216;2023-11-21T12:30:31;11.40;99.90
1129;DHT22;553;51.038;7.216;2023-11-21T12:32:59;11.20;99.90
1129;DHT22;553;51.038;7.216;2023-11-21T12:35:29;11.20;99.90
1129;DHT22;553;51.038;7.216;2023-11-21T12:37:57;11.20;99.90
1129;DHT22;553;51.038;7.216;2023-11-21T12:40:24;11.10;99.90
1129;DHT22;553;51.038;7.216;2023-11-21T12:42:57;11.20;99.90
1129;DHT22;553;51.038;7.216;2023-11-21T12:45:27;11.20;99.90
1129;DHT22;553;51.038;7.216;2023-11-21T12:48:00;11.10;99.90
1129;DHT22;553;51.038;7.216;2023-11-21T12:50:31;11.10;99.90
1129;DHT22;553;51.038;7.216;2023-11-21T12:53:06;11.10;99.90
1129;DHT22;553;51.038;7.216;2023-11-21T12:55:36;11.20;99.90
1129;DHT22;553;51.038;7.216;2023-11-21T12:58:08;11.20;99.90
1129;DHT22;553;51.038;7.216;2023-11-21T13:00:43;11.30;99.90
1129;DHT22;553;51.038;7.216;2023-11-21T13:03:13;11.30;99.90
1129;DHT22;553;51.038;7.216;2023-11-21T13:05:45;11.30;99.90
1129;DHT22;553;51.038;7.216;2023-11-21T13:08:15;11.30;99.90
1129;DHT22;553;51.038;7.216;2023-11-21T13:10:46;11.30;99.90
1129;DHT22;553;51.038;7.216;2023-11-21T13:13:15;11.40;99.90
1129;DHT22;553;51.038;7.216;2023-11-21T13:15:51;11.40;99.90
1129;DHT22;553;51.038;7.216;2023-11-21T13:18:19;11.40;99.90
1129;DHT22;553;51.038;7.216;2023-11-21T13:20:49;11.30;99.90
1129;DHT22;553;51.038;7.216;2023-11-21T13:23:16;12.00;99.90
1129;DHT22;553;51.038;7.216;2023-11-21T13:25:43;11.90;99.90
1129;DHT22;553;51.038;7.216;2023-11-21T13:28:20;11.70;99.90
1129;DHT22;553;51.038;7.216;2023-11-21T13:30:50;11.50;99.90
1129;DHT22;553;51.038;7.216;2023-11-21T13:33:19;11.40;99.90
1129;DHT22;553;51.038;7.216;2023-11-21T13:35:53;11.40;99.90
1129;DHT22;553;51.038;7.216;2023-11-21T13:38:22;11.40;99.90
1129;DHT22;553;51.038;7.216;2023-11-21T13:40:51;11.50;99.90
1129;DHT22;553;51.038;7.216;2023-11-21T13:43:22;11.50;99.90
1129;DHT22;553;51.038;7.216;2023-11-21T13:45:52;11.60;99.90
1129;DHT22;553;51.038;7.216;2023-11-21T13:48:34;11.50;99.90
1129;DHT22;553;51.038;7.216;2023-11-21T13:51:09;11.50;99.90
1129;DHT22;553;51.038;7.216;2023-11-21T13:53:47;11.40;99.90
1129;DHT22;553;51.038;7.216;2023-11-21T13:56:16;11.20;99.90
1129;DHT22;553;51.038;7.216;2023-11-21T13:58:50;11.20;99.90
1129;DHT22;553;51.038;7.216;2023-11-21T14:01:19;11.20;99.90
1129;DHT22;553;51.038;7.216;2023-11-21T14:04:00;11.20;99.90
1129;DHT22;553;51.038;7.216;2023-11-21T14:06:44;11.20;99.90
1129;DHT22;553;51.038;7.216;2023-11-21T14:09:16;11.10;99.90
1129;DHT22;553;51.038;7.216;2023-11-21T14:11:50;11.00;99.90
1129;DHT22;553;51.038;7.216;2023-11-21T14:14:19;11.00;99.90
1129;DHT22;553;51.038;7.216;2023-11-21T14:16:46;11.00;99.90
1129;DHT22;553;51.038;7.216;2023-11-21T14:19:13;11.00;99.90
1129;DHT22;553;51.038;7.216;2023-11-21T14:21:46;11.10;99.90
1129;DHT22;553;51.038;7.216;2023-11-21T14:24:15;11.10;99.90
1129;DHT22;553;51.038;7.216;2023-11-21T14:26:45;11.00;99.90
1129;DHT22;553;51.038;7.216;2023-11-21T14:29:14;11.00;99.90
1129;DHT22;553;51.038;7.216;2023-11-21T14:31:43;11.00;99.90
1129;DHT22;553;51.038;7.216;2023-11-21T14:34:10;11.00;99.90
1129;DHT22;553;51.038;7.216;2023-11-21T14:36:38;10.90;99.90
1129;DHT22;553;51.038;7.216;2023-11-21T14:39:06;10.80;99.90
1129;DHT22;553;51.038;7.216;2023-11-21T14:41:35;10.90;99.90
1129;DHT22;553;51.038;7.216;2023-11-21T14:44:04;10.90;99.90
1129;DHT22;553;51.038;7.216;2023-11-21T14:46:33;10.90;99.90
1129;DHT22;553;51.038;7.216;2023-11-21T14:49:03;10.90;99.90
1129;DHT22;553;51.038;7.216;2023-11-21T14:51:51;10.90;99.90
1129;DHT22;553;51.038;7.216;2023-11-21T14:54:30;10.90;99.90
1129;DHT22;553;51.038;7.216;2023-11-21T14:57:17;10.90;99.90
1129;DHT22;553;51.038;7.216;2023-11-21T14:59:49;10.90;99.90
1129;DHT22;553;51.038;7.216;2023-11-21T15:02:19;10.80;99.90
1129;DHT22;553;51.038;7.216;2023-11-21T15:04:49;10.80;99.90
1129;DHT22;553;51.038;7.216;2023-11-21T15:07:19;10.80;99.90
1129;DHT22;553;51.038;7.216;2023-11-21T15:09:46;10.80;99.90
1129;DHT22;553;51.038;7.216;2023-11-21T15:12:13;10.70;99.90
1129;DHT22;553;51.038;7.216;2023-11-21T15:14:49;10.70;99.90
1129;DHT22;553;51.038;7.216;2023-11-21T15:17:20;10.70;99.90
1129;DHT22;553;51.038;7.216;2023-11-21T15:19:53;10.60;99.90
1129;DHT22;553;51.038;7.216;2023-11-21T15:22:20;10.60;99.90
1129;DHT22;553;51.038;7.216;2023-11-21T15:24:47;10.60;99.90
1129;DHT22;553;51.038;7.216;2023-11-21T15:27:16;10.50;99.90
1129;DHT22;553;51.038;7.216;2023-11-21T15:29:44;10.40;99.90
1129;DHT22;553;51.038;7.216;2023-11-21T15:32:11;10.30;99.90
1129;DHT22;553;51.038;7.216;2023-11-21T15:34:38;10.40;99.90
1129;DHT22;553;51.038;7.216;2023-11-21T15:37:07;10.40;99.90
1129;DHT22;553;51.038;7.216;2023-11-21T15:39:38;10.30;99.90
1129;DHT22;553;51.038;7.216;2023-11-21T15:42:06;10.40;99.90
1129;DHT22;553;51.038;7.216;2023-11-21T15:44:38;10.40;99.90
1129;DHT22;553;51.038;7.216;2023-11-21T15:47:06;10.40;99.90
1129;DHT22;553;51.038;7.216;2023-11-21T15:49:36;10.40;99.90
1129;DHT22;553;51.038;7.216;2023-11-21T15:52:05;10.40;99.90
1129;DHT22;553;51.038;7.216;2023-11-21T15:54:33;10.40;99.90
1129;DHT22;553;51.038;7.216;2023-11-21T15:57:01;10.40;99.90
1129;DHT22;553;51.038;7.216;2023-11-21T15:59:30;10.30;99.90
1129;DHT22;553;51.038;7.216;2023-11-21T16:01:59;10.40;99.90
1129;DHT22;553;51.038;7.216;2023-11-21T16:04:26;10.30;99.90
1129;DHT22;553;51.038;7.216;2023-11-21T16:06:55;10.40;99.90
1129;DHT22;553;51.038;7.216;2023-11-21T16:09:21;10.40;99.90
1129;DHT22;553;51.038;7.216;2023-11-21T16:11:58;12.60;99.90
1129;DHT22;553;51.038;7.216;2023-11-21T16:14:29;13.70;99.90
1129;DHT22;553;51.038;7.216;2023-11-21T16:17:02;12.50;99.90
1129;DHT22;553;51.038;7.216;2023-11-21T16:19:29;11.70;99.90
1129;DHT22;553;51.038;7.216;2023-11-21T16:21:56;11.20;99.90
1129;DHT22;553;51.038;7.216;2023-11-21T16:24:23;12.40;99.90
1129;DHT22;553;51.038;7.216;2023-11-21T16:26:51;13.80;99.90
1129;DHT22;553;51.038;7.216;2023-11-21T16:29:18;14.50;99.90
1129;DHT22;553;51.038;7.216;2023-11-21T16:31:45;13.80;99.90
1129;DHT22;553;51.038;7.216;2023-11-21T16:34:16;13.00;99.90
1129;DHT22;553;51.038;7.216;2023-11-21T16:36:46;12.30;99.90
1129;DHT22;553;51.038;7.216;2023-11-21T16:39:13;11.80;99.90
1129;DHT22;553;51.038;7.216;2023-11-21T16:41:41;11.30;99.90
1129;DHT22;553;51.038;7.216;2023-11-21T16:44:17;11.00;99.90
1129;DHT22;553;51.038;7.216;2023-11-21T16:46:45;10.70;99.90
1129;DHT22;553;51.038;7.216;2023-11-21T16:49:32;10.50;99.90
1129;DHT22;553;51.038;7.216;2023-11-21T16:51:59;10.20;99.90